sensor_id;sensor_type;location;lat;lon;timestamp;P1;durP1;ratioP1;P2;durP2;ratioP2
47725;SDS011;33483;48.294;16.388;2022-08-07T00:01:15;5.43;;;2.33;;
47725;SDS011;33483;48.294;16.388;2022-08-07T00:04:04;4.93;;;2.15;;
47725;SDS011;33483;48.294;16.388;2022-08-07T00:06:39;7.45;;;2.97;;
47725;SDS011;33483;48.294;16.388;2022-08-07T00:09:16;4.55;;;2.38;;
47725;SDS011;33483;48.294;16.388;2022-08-07T00:11:47;3.10;;;2.28;;
47725;SDS011;33483;48.294;16.388;2022-08-07T00:14:22;7.93;;;2.20;;
47725;SDS011;33483;48.294;16.388;2022-08-07T00:16:51;7.82;;;2.38;;
47725;SDS011;33483;48.294;16.388;2022-08-07T00:19:28;3.22;;;2.25;;
47725;SDS011;33483;48.294;16.388;2022-08-07T00:22:21;3.40;;;2.72;;
47725;SDS011;33483;48.294;16.388;2022-08-07T00:25:02;4.28;;;2.60;;
47725;SDS011;33483;48.294;16.388;2022-08-07T00:27:43;4.85;;;2.30;;
47725;SDS011;33483;48.294;16.388;2022-08-07T00:30:19;3.35;;;2.30;;
47725;SDS011;33483;48.294;16.388;2022-08-07T00:32:57;7.82;;;3.08;;
47725;SDS011;33483;48.294;16.388;2022-08-07T00:35:27;3.70;;;2.10;;
47725;SDS011;33483;48.294;16.388;2022-08-07T00:37:57;3.47;;;2.25;;
47725;SDS011;33483;48.294;16.388;2022-08-07T00:40:25;5.07;;;2.30;;
47725;SDS011;33483;48.294;16.388;2022-08-07T00:43:07;4.55;;;2.40;;
47725;SDS011;33483;48.294;16.388;2022-08-07T00:45:56;3.33;;;2.05;;
47725;SDS011;33483;48.294;16.388;2022-08-07T00:48:25;4.20;;;2.25;;
47725;SDS011;33483;48.294;16.388;2022-08-07T00:50:58;4.45;;;2.20;;
47725;SDS011;33483;48.294;16.388;2022-08-07T00:53:29;3.92;;;2.20;;
47725;SDS011;33483;48.294;16.388;2022-08-07T00:56:17;3.55;;;2.03;;
47725;SDS011;33483;48.294;16.388;2022-08-07T00:58:44;2.63;;;2.17;;
47725;SDS011;33483;48.294;16.388;2022-08-07T01:01:15;2.95;;;2.42;;
47725;SDS011;33483;48.294;16.388;2022-08-07T01:03:44;3.88;;;2.13;;
47725;SDS011;33483;48.294;16.388;2022-08-07T01:06:26;3.47;;;2.00;;
47725;SDS011;33483;48.294;16.388;2022-08-07T01:08:55;3.55;;;2.10;;
47725;SDS011;33483;48.294;16.388;2022-08-07T01:11:27;3.53;;;2.38;;
47725;SDS011;33483;48.294;16.388;2022-08-07T01:14:18;2.88;;;2.20;;
47725;SDS011;33483;48.294;16.388;2022-08-07T01:16:55;5.32;;;2.10;;
47725;SDS011;33483;48.294;16.388;2022-08-07T01:19:25;3.03;;;1.90;;
47725;SDS011;33483;48.294;16.388;2022-08-07T01:21:59;5.82;;;2.00;;
47725;SDS011;33483;48.294;16.388;2022-08-07T01:24:34;5.23;;;2.33;;
47725;SDS011;33483;48.294;16.388;2022-08-07T01:27:02;3.90;;;2.30;;
47725;SDS011;33483;48.294;16.388;2022-08-07T01:29:46;1.98;;;1.83;;
47725;SDS011;33483;48.294;16.388;2022-08-07T01:32:18;4.65;;;2.15;;
47725;SDS011;33483;48.294;16.388;2022-08-07T01:34:51;3.95;;;2.03;;
47725;SDS011;33483;48.294;16.388;2022-08-07T01:37:20;4.30;;;2.00;;
47725;SDS011;33483;48.294;16.388;2022-08-07T01:39:51;4.00;;;2.20;;
47725;SDS011;33483;48.294;16.388;2022-08-07T01:42:27;3.03;;;2.20;;
47725;SDS011;33483;48.294;16.388;2022-08-07T01:45:15;3.63;;;2.15;;
47725;SDS011;33483;48.294;16.388;2022-08-07T01:47:46;6.10;;;2.30;;
47725;SDS011;33483;48.294;16.388;2022-08-07T01:50:36;3.40;;;2.17;;
47725;SDS011;33483;48.294;16.388;2022-08-07T01:53:12;4.18;;;2.10;;
47725;SDS011;33483;48.294;16.388;2022-08-07T01:56:05;3.50;;;2.10;;
47725;SDS011;33483;48.294;16.388;2022-08-07T01:58:41;3.55;;;2.05;;
47725;SDS011;33483;48.294;16.388;2022-08-07T02:04:08;4.28;;;2.30;;
47725;SDS011;33483;48.294;16.388;2022-08-07T02:06:45;2.40;;;1.95;;
47725;SDS011;33483;48.294;16.388;2022-08-07T02:09:16;3.67;;;2.28;;
47725;SDS011;33483;48.294;16.388;2022-08-07T02:12:07;5.72;;;1.90;;
47725;SDS011;33483;48.294;16.388;2022-08-07T02:14:55;4.35;;;2.28;;
47725;SDS011;33483;48.294;16.388;2022-08-07T02:17:36;3.35;;;2.30;;
47725;SDS011;33483;48.294;16.388;2022-08-07T02:20:06;2.55;;;1.80;;
47725;SDS011;33483;48.294;16.388;2022-08-07T02:22:51;2.20;;;1.90;;
47725;SDS011;33483;48.294;16.388;2022-08-07T02:25:22;4.18;;;2.22;;
47725;SDS011;33483;48.294;16.388;2022-08-07T02:28:13;3.90;;;2.45;;
47725;SDS011;33483;48.294;16.388;2022-08-07T02:30:54;6.55;;;2.25;;
47725;SDS011;33483;48.294;16.388;2022-08-07T02:33:25;2.53;;;2.00;;
47725;SDS011;33483;48.294;16.388;2022-08-07T02:36:15;3.20;;;2.20;;
47725;SDS011;33483;48.294;16.388;2022-08-07T02:38:59;7.00;;;2.05;;
47725;SDS011;33483;48.294;16.388;2022-08-07T02:41:46;4.53;;;2.20;;
47725;SDS011;33483;48.294;16.388;2022-08-07T02:44:23;3.13;;;2.10;;
47725;SDS011;33483;48.294;16.388;2022-08-07T02:47:02;2.40;;;2.00;;
47725;SDS011;33483;48.294;16.388;2022-08-07T02:49:32;3.40;;;1.92;;
47725;SDS011;33483;48.294;16.388;2022-08-07T02:52:23;2.72;;;2.13;;
47725;SDS011;33483;48.294;16.388;2022-08-07T02:55:00;3.35;;;2.13;;
47725;SDS011;33483;48.294;16.388;2022-08-07T02:57:53;5.75;;;1.98;;
47725;SDS011;33483;48.294;16.388;2022-08-07T03:00:26;4.93;;;2.13;;
47725;SDS011;33483;48.294;16.388;2022-08-07T03:02:56;2.47;;;2.00;;
47725;SDS011;33483;48.294;16.388;2022-08-07T03:05:34;2.40;;;1.98;;
47725;SDS011;33483;48.294;16.388;2022-08-07T03:08:04;4.38;;;2.17;;
47725;SDS011;33483;48.294;16.388;2022-08-07T03:10:41;4.20;;;2.10;;
47725;SDS011;33483;48.294;16.388;2022-08-07T03:13:18;3.17;;;2.33;;
47725;SDS011;33483;48.294;16.388;2022-08-07T03:15:47;3.05;;;1.90;;
47725;SDS011;33483;48.294;16.388;2022-08-07T03:18:26;5.82;;;2.40;;
47725;SDS011;33483;48.294;16.388;2022-08-07T03:21:04;5.72;;;2.13;;
47725;SDS011;33483;48.294;16.388;2022-08-07T03:23:38;2.30;;;1.80;;
47725;SDS011;33483;48.294;16.388;2022-08-07T03:26:30;2.65;;;1.88;;
47725;SDS011;33483;48.294;16.388;2022-08-07T03:29:04;3.20;;;2.08;;
47725;SDS011;33483;48.294;16.388;2022-08-07T03:31:39;2.72;;;1.88;;
47725;SDS011;33483;48.294;16.388;2022-08-07T03:34:16;3.47;;;2.17;;
47725;SDS011;33483;48.294;16.388;2022-08-07T03:36:52;3.22;;;2.05;;
47725;SDS011;33483;48.294;16.388;2022-08-07T03:39:24;5.75;;;2.08;;
47725;SDS011;33483;48.294;16.388;2022-08-07T03:42:16;6.60;;;1.75;;
47725;SDS011;33483;48.294;16.388;2022-08-07T03:44:47;5.30;;;2.10;;
47725;SDS011;33483;48.294;16.388;2022-08-07T03:47:21;2.50;;;1.77;;
47725;SDS011;33483;48.294;16.388;2022-08-07T03:49:49;5.13;;;2.20;;
47725;SDS011;33483;48.294;16.388;2022-08-07T03:52:26;5.93;;;2.08;;
47725;SDS011;33483;48.294;16.388;2022-08-07T03:55:00;4.22;;;1.90;;
47725;SDS011;33483;48.294;16.388;2022-08-07T03:57:36;4.63;;;2.65;;
47725;SDS011;33483;48.294;16.388;2022-08-07T04:00:31;2.33;;;1.60;;
47725;SDS011;33483;48.294;16.388;2022-08-07T04:03:03;2.22;;;1.60;;
47725;SDS011;33483;48.294;16.388;2022-08-07T04:05:39;6.10;;;1.80;;
47725;SDS011;33483;48.294;16.388;2022-08-07T04:08:18;7.47;;;2.20;;
47725;SDS011;33483;48.294;16.388;2022-08-07T04:10:49;4.22;;;1.80;;
47725;SDS011;33483;48.294;16.388;2022-08-07T04:13:38;4.28;;;2.03;;
47725;SDS011;33483;48.294;16.388;2022-08-07T04:16:28;3.63;;;1.77;;
47725;SDS011;33483;48.294;16.388;2022-08-07T04:19:01;4.45;;;1.80;;
47725;SDS011;33483;48.294;16.388;2022-08-07T04:21:42;4.28;;;1.85;;
47725;SDS011;33483;48.294;16.388;2022-08-07T04:24:34;2.83;;;1.73;;
47725;SDS011;33483;48.294;16.388;2022-08-07T04:27:10;3.50;;;1.73;;
47725;SDS011;33483;48.294;16.388;2022-08-07T04:29:55;3.45;;;2.05;;
47725;SDS011;33483;48.294;16.388;2022-08-07T04:32:47;4.57;;;1.83;;
47725;SDS011;33483;48.294;16.388;2022-08-07T04:35:28;2.95;;;2.08;;
47725;SDS011;33483;48.294;16.388;2022-08-07T04:38:03;4.10;;;1.80;;
47725;SDS011;33483;48.294;16.388;2022-08-07T04:40:42;2.75;;;1.83;;
47725;SDS011;33483;48.294;16.388;2022-08-07T04:43:25;4.28;;;1.70;;
47725;SDS011;33483;48.294;16.388;2022-08-07T04:49:40;3.42;;;1.80;;
47725;SDS011;33483;48.294;16.388;2022-08-07T04:52:38;2.67;;;1.77;;
47725;SDS011;33483;48.294;16.388;2022-08-07T05:07:33;3.97;;;1.70;;
47725;SDS011;33483;48.294;16.388;2022-08-07T05:10:21;3.83;;;1.83;;
47725;SDS011;33483;48.294;16.388;2022-08-07T05:12:57;3.35;;;2.00;;
47725;SDS011;33483;48.294;16.388;2022-08-07T05:15:56;7.72;;;2.30;;
47725;SDS011;33483;48.294;16.388;2022-08-07T05:18:32;3.88;;;1.95;;
47725;SDS011;33483;48.294;16.388;2022-08-07T05:21:10;3.90;;;1.90;;
47725;SDS011;33483;48.294;16.388;2022-08-07T05:24:06;5.30;;;2.10;;
47725;SDS011;33483;48.294;16.388;2022-08-07T05:26:39;2.10;;;1.70;;
47725;SDS011;33483;48.294;16.388;2022-08-07T05:29:13;3.40;;;1.77;;
47725;SDS011;33483;48.294;16.388;2022-08-07T05:31:43;2.30;;;1.80;;
47725;SDS011;33483;48.294;16.388;2022-08-07T05:34:24;4.70;;;2.17;;
47725;SDS011;33483;48.294;16.388;2022-08-07T05:36:54;4.82;;;1.88;;
47725;SDS011;33483;48.294;16.388;2022-08-07T05:42:29;5.68;;;2.03;;
47725;SDS011;33483;48.294;16.388;2022-08-07T05:45:03;2.67;;;1.83;;
47725;SDS011;33483;48.294;16.388;2022-08-07T05:47:55;3.67;;;1.90;;
47725;SDS011;33483;48.294;16.388;2022-08-07T05:50:30;3.27;;;1.83;;
47725;SDS011;33483;48.294;16.388;2022-08-07T05:53:01;3.53;;;1.95;;
47725;SDS011;33483;48.294;16.388;2022-08-07T05:55:33;4.47;;;1.70;;
47725;SDS011;33483;48.294;16.388;2022-08-07T05:58:23;4.47;;;1.80;;
47725;SDS011;33483;48.294;16.388;2022-08-07T06:01:08;3.63;;;1.90;;
47725;SDS011;33483;48.294;16.388;2022-08-07T06:03:44;2.25;;;1.85;;
47725;SDS011;33483;48.294;16.388;2022-08-07T06:06:33;4.15;;;1.80;;
47725;SDS011;33483;48.294;16.388;2022-08-07T06:09:04;4.13;;;2.00;;
47725;SDS011;33483;48.294;16.388;2022-08-07T06:11:38;4.18;;;1.80;;
47725;SDS011;33483;48.294;16.388;2022-08-07T06:14:09;3.30;;;1.90;;
47725;SDS011;33483;48.294;16.388;2022-08-07T06:16:50;2.60;;;1.80;;
47725;SDS011;33483;48.294;16.388;2022-08-07T06:19:27;6.28;;;2.00;;
47725;SDS011;33483;48.294;16.388;2022-08-07T06:22:17;3.58;;;1.77;;
47725;SDS011;33483;48.294;16.388;2022-08-07T06:25:04;1.65;;;1.42;;
47725;SDS011;33483;48.294;16.388;2022-08-07T06:27:36;4.15;;;1.90;;
47725;SDS011;33483;48.294;16.388;2022-08-07T06:30:24;4.32;;;1.85;;
47725;SDS011;33483;48.294;16.388;2022-08-07T06:33:17;4.15;;;1.35;;
47725;SDS011;33483;48.294;16.388;2022-08-07T06:35:49;3.30;;;1.52;;
47725;SDS011;33483;48.294;16.388;2022-08-07T06:38:44;2.10;;;1.70;;
47725;SDS011;33483;48.294;16.388;2022-08-07T06:41:43;3.00;;;1.88;;
47725;SDS011;33483;48.294;16.388;2022-08-07T06:45:02;8.30;;;1.90;;
47725;SDS011;33483;48.294;16.388;2022-08-07T06:47:37;2.75;;;1.88;;
47725;SDS011;33483;48.294;16.388;2022-08-07T06:50:28;5.30;;;1.80;;
47725;SDS011;33483;48.294;16.388;2022-08-07T06:53:03;5.45;;;1.73;;
47725;SDS011;33483;48.294;16.388;2022-08-07T06:55:53;4.05;;;1.85;;
47725;SDS011;33483;48.294;16.388;2022-08-07T06:58:32;3.85;;;1.60;;
47725;SDS011;33483;48.294;16.388;2022-08-07T07:01:09;4.90;;;1.55;;
47725;SDS011;33483;48.294;16.388;2022-08-07T07:03:43;3.78;;;1.65;;
47725;SDS011;33483;48.294;16.388;2022-08-07T07:06:22;2.92;;;1.80;;
47725;SDS011;33483;48.294;16.388;2022-08-07T07:08:53;2.25;;;1.73;;
47725;SDS011;33483;48.294;16.388;2022-08-07T07:11:22;2.40;;;1.42;;
47725;SDS011;33483;48.294;16.388;2022-08-07T07:14:10;3.10;;;1.48;;
47725;SDS011;33483;48.294;16.388;2022-08-07T07:16:47;2.55;;;1.60;;
47725;SDS011;33483;48.294;16.388;2022-08-07T07:19:20;5.28;;;1.95;;
47725;SDS011;33483;48.294;16.388;2022-08-07T07:22:13;4.43;;;1.60;;
47725;SDS011;33483;48.294;16.388;2022-08-07T07:25:02;1.40;;;1.27;;
47725;SDS011;33483;48.294;16.388;2022-08-07T07:31:01;4.43;;;2.00;;
47725;SDS011;33483;48.294;16.388;2022-08-07T07:33:33;4.05;;;1.50;;
47725;SDS011;33483;48.294;16.388;2022-08-07T07:36:03;3.88;;;1.92;;
47725;SDS011;33483;48.294;16.388;2022-08-07T07:38:40;2.65;;;1.55;;
47725;SDS011;33483;48.294;16.388;2022-08-07T07:41:11;3.17;;;1.75;;
47725;SDS011;33483;48.294;16.388;2022-08-07T07:43:42;2.88;;;1.50;;
47725;SDS011;33483;48.294;16.388;2022-08-07T07:46:33;3.72;;;2.03;;
47725;SDS011;33483;48.294;16.388;2022-08-07T07:49:25;4.18;;;1.75;;
47725;SDS011;33483;48.294;16.388;2022-08-07T07:52:15;2.95;;;1.67;;
47725;SDS011;33483;48.294;16.388;2022-08-07T07:54:46;5.25;;;1.58;;
47725;SDS011;33483;48.294;16.388;2022-08-07T07:57:20;4.25;;;1.75;;
47725;SDS011;33483;48.294;16.388;2022-08-07T08:00:09;2.72;;;1.50;;
47725;SDS011;33483;48.294;16.388;2022-08-07T08:02:58;3.55;;;1.85;;
47725;SDS011;33483;48.294;16.388;2022-08-07T08:05:35;4.68;;;1.83;;
47725;SDS011;33483;48.294;16.388;2022-08-07T08:11:06;4.45;;;1.88;;
47725;SDS011;33483;48.294;16.388;2022-08-07T08:13:44;4.20;;;1.67;;
47725;SDS011;33483;48.294;16.388;2022-08-07T08:16:40;2.47;;;1.50;;
47725;SDS011;33483;48.294;16.388;2022-08-07T08:19:18;6.78;;;1.90;;
47725;SDS011;33483;48.294;16.388;2022-08-07T08:22:11;3.25;;;1.70;;
47725;SDS011;33483;48.294;16.388;2022-08-07T08:25:20;4.05;;;1.70;;
47725;SDS011;33483;48.294;16.388;2022-08-07T08:28:19;2.78;;;1.60;;
47725;SDS011;33483;48.294;16.388;2022-08-07T08:31:05;2.60;;;1.90;;
47725;SDS011;33483;48.294;16.388;2022-08-07T08:33:42;7.72;;;1.90;;
47725;SDS011;33483;48.294;16.388;2022-08-07T08:36:25;3.47;;;1.75;;
47725;SDS011;33483;48.294;16.388;2022-08-07T08:38:55;8.13;;;2.00;;
47725;SDS011;33483;48.294;16.388;2022-08-07T08:41:42;2.78;;;1.50;;
47725;SDS011;33483;48.294;16.388;2022-08-07T08:44:35;5.80;;;1.80;;
47725;SDS011;33483;48.294;16.388;2022-08-07T08:47:16;3.05;;;1.60;;
47725;SDS011;33483;48.294;16.388;2022-08-07T08:49:55;4.97;;;1.83;;
47725;SDS011;33483;48.294;16.388;2022-08-07T08:55:22;4.20;;;1.50;;
47725;SDS011;33483;48.294;16.388;2022-08-07T09:01:02;3.50;;;1.40;;
47725;SDS011;33483;48.294;16.388;2022-08-07T09:06:38;5.88;;;1.50;;
47725;SDS011;33483;48.294;16.388;2022-08-07T09:18:32;3.08;;;1.55;;
47725;SDS011;33483;48.294;16.388;2022-08-07T09:30:03;4.35;;;1.40;;
47725;SDS011;33483;48.294;16.388;2022-08-07T09:35:56;2.40;;;1.55;;
47725;SDS011;33483;48.294;16.388;2022-08-07T09:41:23;3.03;;;1.50;;
47725;SDS011;33483;48.294;16.388;2022-08-07T09:47:50;4.65;;;1.50;;
47725;SDS011;33483;48.294;16.388;2022-08-07T09:53:26;4.03;;;1.80;;
47725;SDS011;33483;48.294;16.388;2022-08-07T10:14:53;2.17;;;1.52;;
47725;SDS011;33483;48.294;16.388;2022-08-07T10:40:16;2.42;;;1.40;;
47725;SDS011;33483;48.294;16.388;2022-08-07T10:42:57;4.05;;;1.67;;
47725;SDS011;33483;48.294;16.388;2022-08-07T10:45:39;4.05;;;1.70;;
47725;SDS011;33483;48.294;16.388;2022-08-07T10:48:35;3.95;;;1.80;;
47725;SDS011;33483;48.294;16.388;2022-08-07T10:51:19;4.43;;;1.45;;
47725;SDS011;33483;48.294;16.388;2022-08-07T10:54:07;2.20;;;1.38;;
47725;SDS011;33483;48.294;16.388;2022-08-07T11:05:29;2.50;;;1.35;;
47725;SDS011;33483;48.294;16.388;2022-08-07T11:11:42;2.10;;;1.38;;
47725;SDS011;33483;48.294;16.388;2022-08-07T11:14:01;2.47;;;1.42;;
47725;SDS011;33483;48.294;16.388;2022-08-07T11:16:51;2.70;;;1.00;;
47725;SDS011;33483;48.294;16.388;2022-08-07T11:19:50;1.95;;;1.40;;
47725;SDS011;33483;48.294;16.388;2022-08-07T11:25:12;3.67;;;1.52;;
47725;SDS011;33483;48.294;16.388;2022-08-07T11:30:36;5.28;;;1.35;;
47725;SDS011;33483;48.294;16.388;2022-08-07T11:48:20;3.97;;;1.42;;
47725;SDS011;33483;48.294;16.388;2022-08-07T11:50:59;1.75;;;1.30;;
47725;SDS011;33483;48.294;16.388;2022-08-07T12:00:17;4.75;;;1.63;;
47725;SDS011;33483;48.294;16.388;2022-08-07T12:12:17;3.33;;;1.40;;
47725;SDS011;33483;48.294;16.388;2022-08-07T12:14:54;3.72;;;1.67;;
47725;SDS011;33483;48.294;16.388;2022-08-07T12:17:36;3.08;;;1.45;;
47725;SDS011;33483;48.294;16.388;2022-08-07T12:25:44;4.07;;;1.80;;
47725;SDS011;33483;48.294;16.388;2022-08-07T12:28:46;1.88;;;1.20;;
47725;SDS011;33483;48.294;16.388;2022-08-07T12:34:17;3.95;;;1.75;;
47725;SDS011;33483;48.294;16.388;2022-08-07T12:36:48;4.32;;;1.20;;
47725;SDS011;33483;48.294;16.388;2022-08-07T12:39:19;3.92;;;1.55;;
47725;SDS011;33483;48.294;16.388;2022-08-07T12:42:10;3.63;;;1.70;;
47725;SDS011;33483;48.294;16.388;2022-08-07T12:44:39;2.60;;;1.70;;
47725;SDS011;33483;48.294;16.388;2022-08-07T12:56:15;3.75;;;1.98;;
47725;SDS011;33483;48.294;16.388;2022-08-07T12:58:53;2.55;;;1.52;;
47725;SDS011;33483;48.294;16.388;2022-08-07T13:05:02;4.70;;;1.88;;
47725;SDS011;33483;48.294;16.388;2022-08-07T13:16:23;4.78;;;2.00;;
47725;SDS011;33483;48.294;16.388;2022-08-07T13:24:55;3.42;;;1.65;;
47725;SDS011;33483;48.294;16.388;2022-08-07T13:27:30;3.55;;;1.63;;
47725;SDS011;33483;48.294;16.388;2022-08-07T13:30:23;4.90;;;1.55;;
47725;SDS011;33483;48.294;16.388;2022-08-07T13:33:20;3.25;;;1.45;;
47725;SDS011;33483;48.294;16.388;2022-08-07T13:36:20;3.00;;;1.40;;
47725;SDS011;33483;48.294;16.388;2022-08-07T13:39:24;1.67;;;1.40;;
47725;SDS011;33483;48.294;16.388;2022-08-07T13:42:15;2.90;;;1.52;;
47725;SDS011;33483;48.294;16.388;2022-08-07T13:44:50;2.83;;;1.88;;
47725;SDS011;33483;48.294;16.388;2022-08-07T13:47:39;2.97;;;1.40;;
47725;SDS011;33483;48.294;16.388;2022-08-07T13:50:27;2.33;;;1.30;;
47725;SDS011;33483;48.294;16.388;2022-08-07T13:53:16;4.35;;;1.48;;
47725;SDS011;33483;48.294;16.388;2022-08-07T13:55:49;6.47;;;1.45;;
47725;SDS011;33483;48.294;16.388;2022-08-07T13:58:22;3.88;;;1.50;;
47725;SDS011;33483;48.294;16.388;2022-08-07T14:01:23;2.80;;;1.50;;
47725;SDS011;33483;48.294;16.388;2022-08-07T14:04:06;3.22;;;1.40;;
47725;SDS011;33483;48.294;16.388;2022-08-07T14:06:36;3.15;;;1.60;;
47725;SDS011;33483;48.294;16.388;2022-08-07T14:09:14;2.20;;;1.45;;
47725;SDS011;33483;48.294;16.388;2022-08-07T14:12:12;1.80;;;1.48;;
47725;SDS011;33483;48.294;16.388;2022-08-07T14:14:55;5.43;;;1.48;;
47725;SDS011;33483;48.294;16.388;2022-08-07T14:17:33;2.08;;;1.33;;
47725;SDS011;33483;48.294;16.388;2022-08-07T14:20:24;3.38;;;1.60;;
47725;SDS011;33483;48.294;16.388;2022-08-07T14:26:09;2.03;;;1.10;;
47725;SDS011;33483;48.294;16.388;2022-08-07T14:28:54;3.33;;;1.50;;
47725;SDS011;33483;48.294;16.388;2022-08-07T14:31:36;3.35;;;1.30;;
47725;SDS011;33483;48.294;16.388;2022-08-07T14:34:19;2.92;;;1.88;;
47725;SDS011;33483;48.294;16.388;2022-08-07T14:36:56;2.47;;;1.42;;
47725;SDS011;33483;48.294;16.388;2022-08-07T14:39:30;3.17;;;1.58;;
47725;SDS011;33483;48.294;16.388;2022-08-07T14:42:25;3.25;;;1.60;;
47725;SDS011;33483;48.294;16.388;2022-08-07T14:44:58;4.72;;;1.58;;
47725;SDS011;33483;48.294;16.388;2022-08-07T14:47:48;3.55;;;1.70;;
47725;SDS011;33483;48.294;16.388;2022-08-07T14:50:25;2.30;;;1.58;;
47725;SDS011;33483;48.294;16.388;2022-08-07T14:53:03;1.95;;;1.60;;
47725;SDS011;33483;48.294;16.388;2022-08-07T14:55:35;5.20;;;1.42;;
47725;SDS011;33483;48.294;16.388;2022-08-07T14:58:26;3.22;;;1.60;;
47725;SDS011;33483;48.294;16.388;2022-08-07T15:00:59;1.88;;;1.50;;
47725;SDS011;33483;48.294;16.388;2022-08-07T15:03:50;2.17;;;1.42;;
47725;SDS011;33483;48.294;16.388;2022-08-07T15:06:23;3.05;;;1.60;;
47725;SDS011;33483;48.294;16.388;2022-08-07T15:08:55;4.60;;;1.85;;
47725;SDS011;33483;48.294;16.388;2022-08-07T15:11:52;3.13;;;1.70;;
47725;SDS011;33483;48.294;16.388;2022-08-07T15:14:27;2.83;;;1.83;;
47725;SDS011;33483;48.294;16.388;2022-08-07T15:16:57;3.60;;;1.42;;
47725;SDS011;33483;48.294;16.388;2022-08-07T15:19:28;2.45;;;1.65;;
47725;SDS011;33483;48.294;16.388;2022-08-07T15:22:19;2.33;;;1.60;;
47725;SDS011;33483;48.294;16.388;2022-08-07T15:24:59;4.75;;;1.58;;
47725;SDS011;33483;48.294;16.388;2022-08-07T15:27:46;4.57;;;1.63;;
47725;SDS011;33483;48.294;16.388;2022-08-07T15:30:37;5.82;;;1.88;;
47725;SDS011;33483;48.294;16.388;2022-08-07T15:33:25;3.42;;;1.80;;
47725;SDS011;33483;48.294;16.388;2022-08-07T15:36:01;2.53;;;1.90;;
47725;SDS011;33483;48.294;16.388;2022-08-07T15:38:35;3.67;;;1.92;;
47725;SDS011;33483;48.294;16.388;2022-08-07T15:41:24;3.28;;;1.95;;
47725;SDS011;33483;48.294;16.388;2022-08-07T15:44:16;2.00;;;1.70;;
47725;SDS011;33483;48.294;16.388;2022-08-07T15:46:46;4.25;;;1.73;;
47725;SDS011;33483;48.294;16.388;2022-08-07T15:49:25;2.75;;;1.83;;
47725;SDS011;33483;48.294;16.388;2022-08-07T15:52:19;2.38;;;1.80;;
47725;SDS011;33483;48.294;16.388;2022-08-07T15:55:01;4.75;;;1.80;;
47725;SDS011;33483;48.294;16.388;2022-08-07T15:57:37;4.60;;;2.00;;
47725;SDS011;33483;48.294;16.388;2022-08-07T16:00:18;2.50;;;1.75;;
47725;SDS011;33483;48.294;16.388;2022-08-07T16:03:00;2.40;;;1.77;;
47725;SDS011;33483;48.294;16.388;2022-08-07T16:05:33;4.32;;;2.08;;
47725;SDS011;33483;48.294;16.388;2022-08-07T16:08:07;7.32;;;1.90;;
47725;SDS011;33483;48.294;16.388;2022-08-07T16:10:59;3.15;;;1.70;;
47725;SDS011;33483;48.294;16.388;2022-08-07T16:25:36;3.78;;;1.83;;
47725;SDS011;33483;48.294;16.388;2022-08-07T16:40:37;2.67;;;1.88;;
47725;SDS011;33483;48.294;16.388;2022-08-07T16:43:52;6.43;;;2.10;;
47725;SDS011;33483;48.294;16.388;2022-08-07T17:08:09;3.15;;;1.77;;
47725;SDS011;33483;48.294;16.388;2022-08-07T17:10:54;5.40;;;2.17;;
47725;SDS011;33483;48.294;16.388;2022-08-07T17:21:32;3.10;;;2.10;;
47725;SDS011;33483;48.294;16.388;2022-08-07T17:24:32;2.75;;;2.15;;
47725;SDS011;33483;48.294;16.388;2022-08-07T17:30:30;4.80;;;2.13;;
47725;SDS011;33483;48.294;16.388;2022-08-07T17:33:25;4.47;;;1.90;;
47725;SDS011;33483;48.294;16.388;2022-08-07T17:36:22;3.03;;;1.90;;
47725;SDS011;33483;48.294;16.388;2022-08-07T17:41:50;5.20;;;2.30;;
47725;SDS011;33483;48.294;16.388;2022-08-07T17:44:33;2.83;;;1.95;;
47725;SDS011;33483;48.294;16.388;2022-08-07T17:47:16;6.25;;;1.83;;
47725;SDS011;33483;48.294;16.388;2022-08-07T17:53:23;7.20;;;2.15;;
47725;SDS011;33483;48.294;16.388;2022-08-07T17:56:22;3.72;;;2.22;;
47725;SDS011;33483;48.294;16.388;2022-08-07T18:01:24;4.15;;;2.00;;
47725;SDS011;33483;48.294;16.388;2022-08-07T18:09:51;2.72;;;2.28;;
47725;SDS011;33483;48.294;16.388;2022-08-07T18:18:24;7.53;;;2.72;;
47725;SDS011;33483;48.294;16.388;2022-08-07T18:22:02;2.83;;;2.50;;
47725;SDS011;33483;48.294;16.388;2022-08-07T18:24:31;4.10;;;2.42;;
47725;SDS011;33483;48.294;16.388;2022-08-07T18:36:14;8.57;;;2.53;;
47725;SDS011;33483;48.294;16.388;2022-08-07T18:45:17;3.30;;;2.90;;
47725;SDS011;33483;48.294;16.388;2022-08-07T18:48:43;5.75;;;2.97;;
47725;SDS011;33483;48.294;16.388;2022-08-07T18:55:01;4.78;;;2.60;;
47725;SDS011;33483;48.294;16.388;2022-08-07T19:00:49;7.18;;;3.13;;
47725;SDS011;33483;48.294;16.388;2022-08-07T19:03:30;3.78;;;2.85;;
47725;SDS011;33483;48.294;16.388;2022-08-07T19:12:45;4.78;;;2.80;;
47725;SDS011;33483;48.294;16.388;2022-08-07T19:15:43;3.75;;;2.97;;
47725;SDS011;33483;48.294;16.388;2022-08-07T19:18:56;4.28;;;3.40;;
47725;SDS011;33483;48.294;16.388;2022-08-07T19:27:11;4.28;;;3.00;;
47725;SDS011;33483;48.294;16.388;2022-08-07T19:30:08;5.43;;;3.40;;
47725;SDS011;33483;48.294;16.388;2022-08-07T19:33:00;8.35;;;3.17;;
47725;SDS011;33483;48.294;16.388;2022-08-07T19:35:48;3.90;;;3.10;;
47725;SDS011;33483;48.294;16.388;2022-08-07T19:38:20;6.15;;;3.30;;
47725;SDS011;33483;48.294;16.388;2022-08-07T19:40:57;4.40;;;3.13;;
47725;SDS011;33483;48.294;16.388;2022-08-07T19:43:30;3.60;;;3.00;;
47725;SDS011;33483;48.294;16.388;2022-08-07T19:46:15;3.60;;;3.00;;
47725;SDS011;33483;48.294;16.388;2022-08-07T19:48:56;6.03;;;2.97;;
47725;SDS011;33483;48.294;16.388;2022-08-07T19:51:33;7.13;;;3.58;;
47725;SDS011;33483;48.294;16.388;2022-08-07T19:54:22;3.53;;;2.78;;
47725;SDS011;33483;48.294;16.388;2022-08-07T19:57:11;6.10;;;2.75;;
47725;SDS011;33483;48.294;16.388;2022-08-07T20:00:07;5.13;;;3.03;;
47725;SDS011;33483;48.294;16.388;2022-08-07T20:02:56;3.47;;;2.70;;
47725;SDS011;33483;48.294;16.388;2022-08-07T20:05:30;6.13;;;2.92;;
47725;SDS011;33483;48.294;16.388;2022-08-07T20:08:26;4.72;;;2.72;;
47725;SDS011;33483;48.294;16.388;2022-08-07T20:11:02;6.78;;;2.40;;
47725;SDS011;33483;48.294;16.388;2022-08-07T20:13:44;3.80;;;2.40;;
47725;SDS011;33483;48.294;16.388;2022-08-07T20:16:17;4.55;;;2.70;;
47725;SDS011;33483;48.294;16.388;2022-08-07T20:19:05;5.30;;;2.33;;
47725;SDS011;33483;48.294;16.388;2022-08-07T20:21:37;7.80;;;2.63;;
47725;SDS011;33483;48.294;16.388;2022-08-07T20:24:24;5.10;;;2.28;;
47725;SDS011;33483;48.294;16.388;2022-08-07T20:26:57;4.53;;;2.53;;
47725;SDS011;33483;48.294;16.388;2022-08-07T20:29:30;5.40;;;2.75;;
47725;SDS011;33483;48.294;16.388;2022-08-07T20:32:29;3.67;;;2.38;;
47725;SDS011;33483;48.294;16.388;2022-08-07T20:35:07;6.03;;;2.75;;
47725;SDS011;33483;48.294;16.388;2022-08-07T20:40:28;4.10;;;2.45;;
47725;SDS011;33483;48.294;16.388;2022-08-07T20:43:02;3.88;;;2.35;;
47725;SDS011;33483;48.294;16.388;2022-08-07T20:45:48;5.07;;;2.60;;
47725;SDS011;33483;48.294;16.388;2022-08-07T20:48:39;4.43;;;2.50;;
47725;SDS011;33483;48.294;16.388;2022-08-07T20:51:30;6.28;;;2.40;;
47725;SDS011;33483;48.294;16.388;2022-08-07T20:54:05;4.10;;;2.30;;
47725;SDS011;33483;48.294;16.388;2022-08-07T20:56:56;5.13;;;2.72;;
47725;SDS011;33483;48.294;16.388;2022-08-07T20:59:27;6.20;;;2.53;;
47725;SDS011;33483;48.294;16.388;2022-08-07T21:02:23;3.80;;;2.58;;
47725;SDS011;33483;48.294;16.388;2022-08-07T21:05:20;4.30;;;2.60;;
47725;SDS011;33483;48.294;16.388;2022-08-07T21:08:11;3.63;;;2.50;;